sensor_id;sensor_type;location;lat;lon;timestamp;P1;durP1;ratioP1;P2;durP2;ratioP2
2912;SDS011;1466;48.778;9.166;2022-12-18T00:01:47;33.58;;;15.07;;
2912;SDS011;1466;48.778;9.166;2022-12-18T00:04:31;31.75;;;15.68;;
2912;SDS011;1466;48.778;9.166;2022-12-18T00:06:57;39.50;;;15.95;;
2912;SDS011;1466;48.778;9.166;2022-12-18T00:09:22;54.70;;;20.03;;
2912;SDS011;1466;48.778;9.166;2022-12-18T00:11:48;53.10;;;20.73;;
2912;SDS011;1466;48.778;9.166;2022-12-18T00:14:13;44.60;;;15.57;;
2912;SDS011;1466;48.778;9.166;2022-12-18T00:16:40;44.40;;;14.60;;
2912;SDS011;1466;48.778;9.166;2022-12-18T00:19:08;36.35;;;17.25;;
2912;SDS011;1466;48.778;9.166;2022-12-18T00:21:34;39.90;;;12.93;;
2912;SDS011;1466;48.778;9.166;2022-12-18T00:24:00;40.27;;;15.67;;
2912;SDS011;1466;48.778;9.166;2022-12-18T00:26:27;34.20;;;12.90;;
2912;SDS011;1466;48.778;9.166;2022-12-18T00:28:54;38.47;;;17.02;;
2912;SDS011;1466;48.778;9.166;2022-12-18T00:31:23;32.67;;;15.32;;
2912;SDS011;1466;48.778;9.166;2022-12-18T00:33:49;47.70;;;19.08;;
2912;SDS011;1466;48.778;9.166;2022-12-18T00:36:16;35.20;;;13.77;;
2912;SDS011;1466;48.778;9.166;2022-12-18T00:38:43;41.53;;;17.17;;
2912;SDS011;1466;48.778;9.166;2022-12-18T00:41:10;47.35;;;16.27;;
2912;SDS011;1466;48.778;9.166;2022-12-18T00:43:37;46.80;;;16.33;;
2912;SDS011;1466;48.778;9.166;2022-12-18T00:46:04;56.90;;;17.98;;
2912;SDS011;1466;48.778;9.166;2022-12-18T00:48:30;32.85;;;15.73;;
2912;SDS011;1466;48.778;9.166;2022-12-18T00:50:56;31.83;;;12.48;;
2912;SDS011;1466;48.778;9.166;2022-12-18T00:53:21;39.17;;;15.60;;
2912;SDS011;1466;48.778;9.166;2022-12-18T00:55:47;45.77;;;14.00;;
2912;SDS011;1466;48.778;9.166;2022-12-18T00:58:14;61.63;;;16.83;;
2912;SDS011;1466;48.778;9.166;2022-12-18T01:00:41;32.30;;;16.52;;
2912;SDS011;1466;48.778;9.166;2022-12-18T01:03:07;34.28;;;13.85;;
2912;SDS011;1466;48.778;9.166;2022-12-18T01:05:38;29.80;;;13.00;;
2912;SDS011;1466;48.778;9.166;2022-12-18T01:08:05;33.55;;;14.98;;
2912;SDS011;1466;48.778;9.166;2022-12-18T01:10:30;34.83;;;16.03;;
2912;SDS011;1466;48.778;9.166;2022-12-18T01:12:56;39.77;;;14.23;;
2912;SDS011;1466;48.778;9.166;2022-12-18T01:15:21;37.33;;;15.93;;
2912;SDS011;1466;48.778;9.166;2022-12-18T01:17:47;48.50;;;16.43;;
2912;SDS011;1466;48.778;9.166;2022-12-18T01:20:13;44.80;;;13.80;;
2912;SDS011;1466;48.778;9.166;2022-12-18T01:22:38;49.67;;;16.87;;
2912;SDS011;1466;48.778;9.166;2022-12-18T01:25:04;49.20;;;19.93;;
2912;SDS011;1466;48.778;9.166;2022-12-18T01:27:30;35.78;;;15.32;;
2912;SDS011;1466;48.778;9.166;2022-12-18T01:29:57;35.13;;;14.45;;
2912;SDS011;1466;48.778;9.166;2022-12-18T01:32:23;26.40;;;12.73;;
2912;SDS011;1466;48.778;9.166;2022-12-18T01:34:49;34.63;;;13.80;;
2912;SDS011;1466;48.778;9.166;2022-12-18T01:37:14;36.40;;;14.13;;
2912;SDS011;1466;48.778;9.166;2022-12-18T01:39:40;44.07;;;14.30;;
2912;SDS011;1466;48.778;9.166;2022-12-18T01:42:10;44.67;;;16.33;;
2912;SDS011;1466;48.778;9.166;2022-12-18T01:50:28;43.88;;;13.23;;
2912;SDS011;1466;48.778;9.166;2022-12-18T01:55:45;43.83;;;16.75;;
2912;SDS011;1466;48.778;9.166;2022-12-18T01:58:13;42.63;;;14.75;;
2912;SDS011;1466;48.778;9.166;2022-12-18T02:00:40;40.80;;;14.32;;
2912;SDS011;1466;48.778;9.166;2022-12-18T02:03:05;26.42;;;12.40;;
2912;SDS011;1466;48.778;9.166;2022-12-18T02:13:27;32.97;;;14.23;;
2912;SDS011;1466;48.778;9.166;2022-12-18T02:18:59;28.23;;;12.20;;
2912;SDS011;1466;48.778;9.166;2022-12-18T02:24:18;37.25;;;14.93;;
2912;SDS011;1466;48.778;9.166;2022-12-18T02:27:05;40.85;;;18.15;;
2912;SDS011;1466;48.778;9.166;2022-12-18T02:29:34;36.10;;;13.88;;
2912;SDS011;1466;48.778;9.166;2022-12-18T02:32:17;35.08;;;13.65;;
2912;SDS011;1466;48.778;9.166;2022-12-18T02:34:48;22.60;;;11.25;;
2912;SDS011;1466;48.778;9.166;2022-12-18T02:37:16;36.58;;;17.08;;
2912;SDS011;1466;48.778;9.166;2022-12-18T02:39:43;28.65;;;12.43;;
2912;SDS011;1466;48.778;9.166;2022-12-18T02:42:12;23.70;;;12.07;;
2912;SDS011;1466;48.778;9.166;2022-12-18T02:44:44;21.37;;;9.63;;
2912;SDS011;1466;48.778;9.166;2022-12-18T02:47:12;28.88;;;11.90;;
2912;SDS011;1466;48.778;9.166;2022-12-18T03:05:17;43.53;;;18.05;;
2912;SDS011;1466;48.778;9.166;2022-12-18T03:10:25;36.05;;;12.45;;
2912;SDS011;1466;48.778;9.166;2022-12-18T03:12:59;29.60;;;12.05;;
2912;SDS011;1466;48.778;9.166;2022-12-18T03:15:34;36.28;;;15.45;;
2912;SDS011;1466;48.778;9.166;2022-12-18T03:18:17;25.58;;;13.55;;
2912;SDS011;1466;48.778;9.166;2022-12-18T03:20:50;33.10;;;13.15;;
2912;SDS011;1466;48.778;9.166;2022-12-18T03:23:19;37.58;;;12.35;;
2912;SDS011;1466;48.778;9.166;2022-12-18T03:25:47;31.48;;;12.80;;
2912;SDS011;1466;48.778;9.166;2022-12-18T03:28:16;34.90;;;14.85;;
2912;SDS011;1466;48.778;9.166;2022-12-18T03:30:46;30.83;;;10.38;;
2912;SDS011;1466;48.778;9.166;2022-12-18T03:33:24;27.33;;;13.10;;
2912;SDS011;1466;48.778;9.166;2022-12-18T03:35:57;30.20;;;12.77;;
2912;SDS011;1466;48.778;9.166;2022-12-18T03:38:23;25.73;;;12.57;;
2912;SDS011;1466;48.778;9.166;2022-12-18T03:46:41;21.85;;;9.95;;
2912;SDS011;1466;48.778;9.166;2022-12-18T03:49:27;34.85;;;13.75;;
2912;SDS011;1466;48.778;9.166;2022-12-18T03:52:14;40.50;;;14.23;;
2912;SDS011;1466;48.778;9.166;2022-12-18T03:54:52;24.13;;;12.15;;
2912;SDS011;1466;48.778;9.166;2022-12-18T03:57:22;27.75;;;14.80;;
2912;SDS011;1466;48.778;9.166;2022-12-18T03:59:51;33.95;;;14.32;;
2912;SDS011;1466;48.778;9.166;2022-12-18T04:02:25;39.88;;;14.60;;
2912;SDS011;1466;48.778;9.166;2022-12-18T04:04:55;33.90;;;14.17;;
2912;SDS011;1466;48.778;9.166;2022-12-18T04:07:23;40.22;;;13.00;;
2912;SDS011;1466;48.778;9.166;2022-12-18T04:09:49;31.57;;;12.60;;
2912;SDS011;1466;48.778;9.166;2022-12-18T04:12:19;28.70;;;12.10;;
2912;SDS011;1466;48.778;9.166;2022-12-18T04:14:45;42.83;;;17.37;;
2912;SDS011;1466;48.778;9.166;2022-12-18T04:17:10;27.60;;;13.53;;
2912;SDS011;1466;48.778;9.166;2022-12-18T04:19:36;33.10;;;14.30;;
2912;SDS011;1466;48.778;9.166;2022-12-18T04:22:02;36.03;;;13.50;;
2912;SDS011;1466;48.778;9.166;2022-12-18T04:24:27;33.10;;;13.03;;
2912;SDS011;1466;48.778;9.166;2022-12-18T04:26:53;33.57;;;14.40;;
2912;SDS011;1466;48.778;9.166;2022-12-18T04:29:18;39.17;;;18.60;;
2912;SDS011;1466;48.778;9.166;2022-12-18T04:31:44;62.43;;;23.67;;
2912;SDS011;1466;48.778;9.166;2022-12-18T04:34:10;59.33;;;23.40;;
2912;SDS011;1466;48.778;9.166;2022-12-18T04:36:35;46.83;;;20.10;;
2912;SDS011;1466;48.778;9.166;2022-12-18T04:39:01;33.73;;;14.57;;
2912;SDS011;1466;48.778;9.166;2022-12-18T04:41:26;31.07;;;14.10;;
2912;SDS011;1466;48.778;9.166;2022-12-18T04:43:52;33.13;;;12.20;;
2912;SDS011;1466;48.778;9.166;2022-12-18T04:46:17;21.40;;;10.00;;
2912;SDS011;1466;48.778;9.166;2022-12-18T04:48:45;22.90;;;9.83;;
2912;SDS011;1466;48.778;9.166;2022-12-18T04:51:11;26.05;;;10.50;;
2912;SDS011;1466;48.778;9.166;2022-12-18T04:53:37;40.95;;;11.80;;
2912;SDS011;1466;48.778;9.166;2022-12-18T04:56:07;23.23;;;11.13;;
2912;SDS011;1466;48.778;9.166;2022-12-18T04:58:35;30.58;;;11.70;;
2912;SDS011;1466;48.778;9.166;2022-12-18T05:01:01;41.63;;;15.43;;
2912;SDS011;1466;48.778;9.166;2022-12-18T05:03:28;43.83;;;20.77;;
2912;SDS011;1466;48.778;9.166;2022-12-18T05:05:54;40.53;;;19.20;;
2912;SDS011;1466;48.778;9.166;2022-12-18T05:08:19;57.17;;;19.53;;
2912;SDS011;1466;48.778;9.166;2022-12-18T05:10:45;40.33;;;15.97;;
2912;SDS011;1466;48.778;9.166;2022-12-18T05:13:13;26.70;;;12.37;;
2912;SDS011;1466;48.778;9.166;2022-12-18T05:15:39;34.05;;;13.65;;
2912;SDS011;1466;48.778;9.166;2022-12-18T05:18:05;38.70;;;14.17;;
2912;SDS011;1466;48.778;9.166;2022-12-18T05:20:30;26.07;;;12.33;;
2912;SDS011;1466;48.778;9.166;2022-12-18T05:22:56;41.53;;;16.33;;
2912;SDS011;1466;48.778;9.166;2022-12-18T05:25:22;42.30;;;15.20;;
2912;SDS011;1466;48.778;9.166;2022-12-18T05:27:48;44.63;;;18.88;;
2912;SDS011;1466;48.778;9.166;2022-12-18T05:30:14;38.67;;;13.23;;
2912;SDS011;1466;48.778;9.166;2022-12-18T05:32:40;25.95;;;9.35;;
2912;SDS011;1466;48.778;9.166;2022-12-18T05:35:07;29.37;;;9.97;;
2912;SDS011;1466;48.778;9.166;2022-12-18T05:37:34;21.77;;;9.10;;
2912;SDS011;1466;48.778;9.166;2022-12-18T05:40:00;27.70;;;12.10;;
2912;SDS011;1466;48.778;9.166;2022-12-18T05:42:26;31.47;;;12.97;;
2912;SDS011;1466;48.778;9.166;2022-12-18T05:44:51;32.67;;;12.80;;
2912;SDS011;1466;48.778;9.166;2022-12-18T05:47:17;22.50;;;9.60;;
2912;SDS011;1466;48.778;9.166;2022-12-18T05:49:42;30.80;;;10.60;;
2912;SDS011;1466;48.778;9.166;2022-12-18T05:52:08;25.80;;;11.87;;
2912;SDS011;1466;48.778;9.166;2022-12-18T05:54:34;29.73;;;11.90;;
2912;SDS011;1466;48.778;9.166;2022-12-18T05:56:59;33.93;;;11.77;;
2912;SDS011;1466;48.778;9.166;2022-12-18T05:59:25;23.17;;;10.13;;
2912;SDS011;1466;48.778;9.166;2022-12-18T06:01:51;35.07;;;13.67;;
2912;SDS011;1466;48.778;9.166;2022-12-18T06:04:16;28.83;;;13.67;;
2912;SDS011;1466;48.778;9.166;2022-12-18T06:06:42;34.07;;;8.50;;
2912;SDS011;1466;48.778;9.166;2022-12-18T06:09:07;31.83;;;13.37;;
2912;SDS011;1466;48.778;9.166;2022-12-18T06:11:35;24.38;;;11.32;;
2912;SDS011;1466;48.778;9.166;2022-12-18T06:14:01;26.48;;;10.73;;
2912;SDS011;1466;48.778;9.166;2022-12-18T06:16:28;26.30;;;12.27;;
2912;SDS011;1466;48.778;9.166;2022-12-18T06:18:58;20.83;;;8.75;;
2912;SDS011;1466;48.778;9.166;2022-12-18T06:21:25;26.90;;;10.25;;
2912;SDS011;1466;48.778;9.166;2022-12-18T06:23:50;26.45;;;8.02;;
2912;SDS011;1466;48.778;9.166;2022-12-18T06:26:16;18.47;;;7.97;;
2912;SDS011;1466;48.778;9.166;2022-12-18T06:28:42;26.20;;;10.93;;
2912;SDS011;1466;48.778;9.166;2022-12-18T06:31:07;20.47;;;8.83;;
2912;SDS011;1466;48.778;9.166;2022-12-18T06:33:34;23.77;;;9.95;;
2912;SDS011;1466;48.778;9.166;2022-12-18T06:36:01;32.13;;;10.70;;
2912;SDS011;1466;48.778;9.166;2022-12-18T06:38:38;22.30;;;8.70;;
2912;SDS011;1466;48.778;9.166;2022-12-18T06:41:06;25.35;;;9.98;;
2912;SDS011;1466;48.778;9.166;2022-12-18T06:43:36;25.52;;;11.40;;
2912;SDS011;1466;48.778;9.166;2022-12-18T06:46:02;25.27;;;9.57;;
2912;SDS011;1466;48.778;9.166;2022-12-18T06:48:29;20.98;;;9.68;;
2912;SDS011;1466;48.778;9.166;2022-12-18T06:50:55;39.08;;;11.60;;
2912;SDS011;1466;48.778;9.166;2022-12-18T06:53:20;22.80;;;9.67;;
2912;SDS011;1466;48.778;9.166;2022-12-18T06:55:46;21.17;;;11.07;;
2912;SDS011;1466;48.778;9.166;2022-12-18T06:58:12;33.83;;;11.13;;
2912;SDS011;1466;48.778;9.166;2022-12-18T07:00:37;22.23;;;8.03;;
2912;SDS011;1466;48.778;9.166;2022-12-18T07:03:03;30.60;;;10.70;;
2912;SDS011;1466;48.778;9.166;2022-12-18T07:05:28;21.43;;;8.73;;
2912;SDS011;1466;48.778;9.166;2022-12-18T07:07:54;24.40;;;10.70;;
2912;SDS011;1466;48.778;9.166;2022-12-18T07:10:19;16.60;;;6.87;;
2912;SDS011;1466;48.778;9.166;2022-12-18T07:12:45;17.43;;;6.70;;
2912;SDS011;1466;48.778;9.166;2022-12-18T07:15:11;24.80;;;10.80;;
2912;SDS011;1466;48.778;9.166;2022-12-18T07:17:36;23.47;;;9.00;;
2912;SDS011;1466;48.778;9.166;2022-12-18T07:20:02;30.30;;;12.03;;
2912;SDS011;1466;48.778;9.166;2022-12-18T07:22:28;46.60;;;14.93;;
2912;SDS011;1466;48.778;9.166;2022-12-18T07:24:53;29.90;;;11.00;;
2912;SDS011;1466;48.778;9.166;2022-12-18T07:27:20;17.90;;;7.65;;
2912;SDS011;1466;48.778;9.166;2022-12-18T07:29:46;27.80;;;11.33;;
2912;SDS011;1466;48.778;9.166;2022-12-18T07:32:11;15.50;;;7.57;;
2912;SDS011;1466;48.778;9.166;2022-12-18T07:34:37;23.90;;;9.43;;
2912;SDS011;1466;48.778;9.166;2022-12-18T07:37:02;33.03;;;13.17;;
2912;SDS011;1466;48.778;9.166;2022-12-18T07:39:28;18.57;;;6.13;;
2912;SDS011;1466;48.778;9.166;2022-12-18T07:41:54;25.07;;;8.47;;
2912;SDS011;1466;48.778;9.166;2022-12-18T07:44:38;31.98;;;10.57;;
2912;SDS011;1466;48.778;9.166;2022-12-18T07:47:04;33.33;;;9.63;;
2912;SDS011;1466;48.778;9.166;2022-12-18T07:49:29;22.10;;;9.13;;
2912;SDS011;1466;48.778;9.166;2022-12-18T07:51:55;28.10;;;9.83;;
2912;SDS011;1466;48.778;9.166;2022-12-18T07:54:22;15.60;;;8.85;;
2912;SDS011;1466;48.778;9.166;2022-12-18T07:56:48;69.97;;;16.85;;
2912;SDS011;1466;48.778;9.166;2022-12-18T07:59:14;36.10;;;15.50;;
2912;SDS011;1466;48.778;9.166;2022-12-18T08:01:39;27.77;;;10.40;;
2912;SDS011;1466;48.778;9.166;2022-12-18T08:04:05;31.40;;;10.20;;
2912;SDS011;1466;48.778;9.166;2022-12-18T08:06:31;31.30;;;9.70;;
2912;SDS011;1466;48.778;9.166;2022-12-18T08:08:56;27.02;;;11.02;;
2912;SDS011;1466;48.778;9.166;2022-12-18T08:11:23;31.67;;;10.03;;
2912;SDS011;1466;48.778;9.166;2022-12-18T08:13:50;24.35;;;9.45;;
2912;SDS011;1466;48.778;9.166;2022-12-18T08:16:16;29.23;;;13.90;;
2912;SDS011;1466;48.778;9.166;2022-12-18T08:18:42;21.25;;;10.65;;
2912;SDS011;1466;48.778;9.166;2022-12-18T08:21:11;23.43;;;11.13;;
2912;SDS011;1466;48.778;9.166;2022-12-18T08:23:46;30.63;;;10.93;;
2912;SDS011;1466;48.778;9.166;2022-12-18T08:26:12;25.08;;;9.80;;
2912;SDS011;1466;48.778;9.166;2022-12-18T08:28:38;18.95;;;9.70;;
2912;SDS011;1466;48.778;9.166;2022-12-18T08:31:05;24.92;;;9.23;;
2912;SDS011;1466;48.778;9.166;2022-12-18T08:33:32;17.90;;;9.23;;
2912;SDS011;1466;48.778;9.166;2022-12-18T08:35:59;16.90;;;8.82;;
2912;SDS011;1466;48.778;9.166;2022-12-18T08:38:25;40.05;;;13.00;;
2912;SDS011;1466;48.778;9.166;2022-12-18T08:40:58;37.30;;;11.17;;
2912;SDS011;1466;48.778;9.166;2022-12-18T08:43:30;42.75;;;13.50;;
2912;SDS011;1466;48.778;9.166;2022-12-18T08:46:14;23.20;;;10.15;;
2912;SDS011;1466;48.778;9.166;2022-12-18T08:48:40;35.73;;;14.17;;
2912;SDS011;1466;48.778;9.166;2022-12-18T08:51:05;25.27;;;10.63;;
2912;SDS011;1466;48.778;9.166;2022-12-18T08:53:31;35.20;;;10.97;;
2912;SDS011;1466;48.778;9.166;2022-12-18T08:55:57;25.50;;;8.70;;
2912;SDS011;1466;48.778;9.166;2022-12-18T08:58:23;46.53;;;15.60;;
2912;SDS011;1466;48.778;9.166;2022-12-18T09:00:48;19.20;;;8.90;;
2912;SDS011;1466;48.778;9.166;2022-12-18T09:03:15;16.77;;;7.53;;
2912;SDS011;1466;48.778;9.166;2022-12-18T09:05:42;36.00;;;12.25;;
2912;SDS011;1466;48.778;9.166;2022-12-18T09:08:08;25.10;;;10.85;;
2912;SDS011;1466;48.778;9.166;2022-12-18T09:10:34;37.47;;;13.97;;
2912;SDS011;1466;48.778;9.166;2022-12-18T09:13:07;25.65;;;11.07;;
2912;SDS011;1466;48.778;9.166;2022-12-18T09:15:32;25.33;;;9.30;;
2912;SDS011;1466;48.778;9.166;2022-12-18T09:17:58;34.63;;;12.93;;
2912;SDS011;1466;48.778;9.166;2022-12-18T09:20:23;29.67;;;12.07;;
2912;SDS011;1466;48.778;9.166;2022-12-18T09:22:49;24.23;;;10.30;;
2912;SDS011;1466;48.778;9.166;2022-12-18T09:25:15;29.80;;;11.80;;
2912;SDS011;1466;48.778;9.166;2022-12-18T09:27:40;23.10;;;10.43;;
2912;SDS011;1466;48.778;9.166;2022-12-18T09:30:06;33.63;;;10.50;;
2912;SDS011;1466;48.778;9.166;2022-12-18T09:32:32;21.88;;;10.10;;
2912;SDS011;1466;48.778;9.166;2022-12-18T09:34:58;22.33;;;11.40;;
2912;SDS011;1466;48.778;9.166;2022-12-18T09:37:23;27.93;;;12.50;;
2912;SDS011;1466;48.778;9.166;2022-12-18T09:39:49;29.60;;;10.57;;
2912;SDS011;1466;48.778;9.166;2022-12-18T09:42:17;25.73;;;11.37;;
2912;SDS011;1466;48.778;9.166;2022-12-18T09:44:48;26.40;;;11.77;;
2912;SDS011;1466;48.778;9.166;2022-12-18T09:49:52;28.50;;;10.05;;
2912;SDS011;1466;48.778;9.166;2022-12-18T09:52:29;25.95;;;11.50;;
2912;SDS011;1466;48.778;9.166;2022-12-18T09:57:33;29.73;;;11.45;;
2912;SDS011;1466;48.778;9.166;2022-12-18T10:00:04;27.70;;;9.15;;
2912;SDS011;1466;48.778;9.166;2022-12-18T10:02:40;21.00;;;8.75;;
2912;SDS011;1466;48.778;9.166;2022-12-18T10:05:13;26.40;;;11.60;;
2912;SDS011;1466;48.778;9.166;2022-12-18T10:10:43;49.42;;;13.57;;
2912;SDS011;1466;48.778;9.166;2022-12-18T10:19:22;67.03;;;22.67;;
2912;SDS011;1466;48.778;9.166;2022-12-18T10:21:39;42.72;;;14.88;;
2912;SDS011;1466;48.778;9.166;2022-12-18T10:24:21;29.75;;;12.05;;
2912;SDS011;1466;48.778;9.166;2022-12-18T10:26:51;30.83;;;11.13;;
2912;SDS011;1466;48.778;9.166;2022-12-18T10:29:18;26.58;;;9.05;;
2912;SDS011;1466;48.778;9.166;2022-12-18T10:31:44;37.83;;;16.30;;
2912;SDS011;1466;48.778;9.166;2022-12-18T10:34:10;32.60;;;12.73;;
2912;SDS011;1466;48.778;9.166;2022-12-18T10:36:37;33.60;;;13.38;;
2912;SDS011;1466;48.778;9.166;2022-12-18T10:39:13;25.98;;;11.35;;
2912;SDS011;1466;48.778;9.166;2022-12-18T10:41:41;27.60;;;12.00;;
2912;SDS011;1466;48.778;9.166;2022-12-18T10:46:46;49.15;;;16.15;;
2912;SDS011;1466;48.778;9.166;2022-12-18T10:49:33;35.65;;;15.77;;
2912;SDS011;1466;48.778;9.166;2022-12-18T10:52:14;43.53;;;13.93;;
2912;SDS011;1466;48.778;9.166;2022-12-18T10:54:46;37.88;;;12.85;;
2912;SDS011;1466;48.778;9.166;2022-12-18T10:59:49;35.05;;;14.20;;
2912;SDS011;1466;48.778;9.166;2022-12-18T11:02:35;33.40;;;12.23;;
2912;SDS011;1466;48.778;9.166;2022-12-18T11:05:02;33.08;;;11.15;;
2912;SDS011;1466;48.778;9.166;2022-12-18T11:07:50;42.63;;;13.07;;
2912;SDS011;1466;48.778;9.166;2022-12-18T11:10:16;36.83;;;10.77;;
2912;SDS011;1466;48.778;9.166;2022-12-18T11:12:43;33.47;;;13.88;;
2912;SDS011;1466;48.778;9.166;2022-12-18T11:15:20;26.48;;;11.88;;
2912;SDS011;1466;48.778;9.166;2022-12-18T11:17:51;39.53;;;12.73;;
2912;SDS011;1466;48.778;9.166;2022-12-18T11:20:51;57.42;;;15.80;;
2912;SDS011;1466;48.778;9.166;2022-12-18T11:23:15;43.70;;;12.90;;
2912;SDS011;1466;48.778;9.166;2022-12-18T11:25:40;31.53;;;10.80;;
2912;SDS011;1466;48.778;9.166;2022-12-18T11:31:24;30.15;;;12.05;;
2912;SDS011;1466;48.778;9.166;2022-12-18T11:36:42;47.80;;;14.88;;
2912;SDS011;1466;48.778;9.166;2022-12-18T11:39:15;47.28;;;15.20;;
2912;SDS011;1466;48.778;9.166;2022-12-18T11:41:56;24.13;;;9.88;;
2912;SDS011;1466;48.778;9.166;2022-12-18T11:44:50;32.47;;;11.98;;
2912;SDS011;1466;48.778;9.166;2022-12-18T11:47:39;57.67;;;12.07;;
2912;SDS011;1466;48.778;9.166;2022-12-18T11:50:21;23.20;;;9.75;;
2912;SDS011;1466;48.778;9.166;2022-12-18T11:52:50;38.92;;;14.05;;
2912;SDS011;1466;48.778;9.166;2022-12-18T11:56:03;31.60;;;14.07;;
2912;SDS011;1466;48.778;9.166;2022-12-18T12:09:28;41.85;;;14.25;;
2912;SDS011;1466;48.778;9.166;2022-12-18T12:14:43;31.80;;;13.07;;
2912;SDS011;1466;48.778;9.166;2022-12-18T12:20:21;32.80;;;10.95;;
2912;SDS011;1466;48.778;9.166;2022-12-18T12:28:31;21.67;;;9.82;;
2912;SDS011;1466;48.778;9.166;2022-12-18T12:31:13;34.35;;;12.32;;
2912;SDS011;1466;48.778;9.166;2022-12-18T12:39:48;35.05;;;12.13;;
2912;SDS011;1466;48.778;9.166;2022-12-18T12:42:20;36.38;;;15.20;;
2912;SDS011;1466;48.778;9.166;2022-12-18T12:45:13;23.17;;;10.18;;
2912;SDS011;1466;48.778;9.166;2022-12-18T12:47:48;29.20;;;12.85;;
2912;SDS011;1466;48.778;9.166;2022-12-18T12:50:16;45.70;;;11.90;;
2912;SDS011;1466;48.778;9.166;2022-12-18T12:52:52;50.67;;;16.13;;
2912;SDS011;1466;48.778;9.166;2022-12-18T12:55:26;33.67;;;14.50;;
2912;SDS011;1466;48.778;9.166;2022-12-18T13:00:25;36.70;;;13.55;;
2912;SDS011;1466;48.778;9.166;2022-12-18T13:03:01;47.42;;;13.48;;
2912;SDS011;1466;48.778;9.166;2022-12-18T13:05:57;41.20;;;14.13;;
2912;SDS011;1466;48.778;9.166;2022-12-18T13:08:30;36.50;;;12.50;;
2912;SDS011;1466;48.778;9.166;2022-12-18T13:10:57;42.17;;;14.25;;
2912;SDS011;1466;48.778;9.166;2022-12-18T13:13:53;51.03;;;20.13;;
2912;SDS011;1466;48.778;9.166;2022-12-18T13:16:21;56.22;;;18.20;;
2912;SDS011;1466;48.778;9.166;2022-12-18T13:18:49;50.40;;;18.33;;
2912;SDS011;1466;48.778;9.166;2022-12-18T13:21:29;30.33;;;14.93;;
2912;SDS011;1466;48.778;9.166;2022-12-18T13:23:57;44.05;;;17.30;;
2912;SDS011;1466;48.778;9.166;2022-12-18T13:26:50;43.33;;;18.08;;
2912;SDS011;1466;48.778;9.166;2022-12-18T13:32:19;42.95;;;17.58;;
2912;SDS011;1466;48.778;9.166;2022-12-18T13:34:46;35.88;;;16.48;;
2912;SDS011;1466;48.778;9.166;2022-12-18T13:39:56;48.00;;;15.75;;
2912;SDS011;1466;48.778;9.166;2022-12-18T13:42:31;48.87;;;15.90;;
2912;SDS011;1466;48.778;9.166;2022-12-18T13:45:34;37.40;;;12.02;;
2912;SDS011;1466;48.778;9.166;2022-12-18T13:48:13;61.30;;;18.38;;
2912;SDS011;1466;48.778;9.166;2022-12-18T13:50:49;50.75;;;17.75;;
2912;SDS011;1466;48.778;9.166;2022-12-18T13:53:21;34.67;;;13.45;;
2912;SDS011;1466;48.778;9.166;2022-12-18T13:55:50;42.00;;;16.60;;
2912;SDS011;1466;48.778;9.166;2022-12-18T13:58:16;44.13;;;15.90;;
2912;SDS011;1466;48.778;9.166;2022-12-18T14:00:42;39.27;;;16.40;;
2912;SDS011;1466;48.778;9.166;2022-12-18T14:03:16;28.60;;;11.90;;
2912;SDS011;1466;48.778;9.166;2022-12-18T14:05:51;46.55;;;16.10;;
2912;SDS011;1466;48.778;9.166;2022-12-18T14:08:25;47.15;;;17.65;;
2912;SDS011;1466;48.778;9.166;2022-12-18T14:10:55;47.15;;;15.85;;
2912;SDS011;1466;48.778;9.166;2022-12-18T14:13:24;33.53;;;14.00;;
2912;SDS011;1466;48.778;9.166;2022-12-18T14:15:54;33.20;;;14.35;;
2912;SDS011;1466;48.778;9.166;2022-12-18T14:20:54;41.05;;;14.02;;
2912;SDS011;1466;48.778;9.166;2022-12-18T14:25:52;51.95;;;17.38;;
2912;SDS011;1466;48.778;9.166;2022-12-18T14:28:17;47.27;;;16.67;;
2912;SDS011;1466;48.778;9.166;2022-12-18T14:30:44;44.73;;;17.10;;
2912;SDS011;1466;48.778;9.166;2022-12-18T14:33:12;54.45;;;17.30;;
2912;SDS011;1466;48.778;9.166;2022-12-18T14:35:56;36.70;;;13.98;;
2912;SDS011;1466;48.778;9.166;2022-12-18T14:40:55;48.22;;;16.65;;
2912;SDS011;1466;48.778;9.166;2022-12-18T14:43:22;46.08;;;16.02;;
2912;SDS011;1466;48.778;9.166;2022-12-18T14:45:48;39.67;;;14.93;;
2912;SDS011;1466;48.778;9.166;2022-12-18T14:48:19;46.60;;;15.88;;
2912;SDS011;1466;48.778;9.166;2022-12-18T14:50:58;59.40;;;17.05;;
2912;SDS011;1466;48.778;9.166;2022-12-18T14:53:29;56.45;;;18.33;;
2912;SDS011;1466;48.778;9.166;2022-12-18T14:55:59;43.42;;;14.18;;
2912;SDS011;1466;48.778;9.166;2022-12-18T14:58:25;52.08;;;19.48;;
2912;SDS011;1466;48.778;9.166;2022-12-18T15:00:51;40.93;;;14.80;;
2912;SDS011;1466;48.778;9.166;2022-12-18T15:03:18;51.33;;;14.43;;
2912;SDS011;1466;48.778;9.166;2022-12-18T15:05:45;53.33;;;16.90;;
2912;SDS011;1466;48.778;9.166;2022-12-18T15:08:26;48.83;;;16.00;;
2912;SDS011;1466;48.778;9.166;2022-12-18T15:10:54;39.08;;;14.40;;
2912;SDS011;1466;48.778;9.166;2022-12-18T15:13:21;49.58;;;18.80;;
2912;SDS011;1466;48.778;9.166;2022-12-18T15:15:49;47.35;;;17.17;;
2912;SDS011;1466;48.778;9.166;2022-12-18T15:18:17;45.22;;;15.70;;
2912;SDS011;1466;48.778;9.166;2022-12-18T15:20:53;45.47;;;17.98;;
2912;SDS011;1466;48.778;9.166;2022-12-18T15:23:38;47.65;;;15.27;;
2912;SDS011;1466;48.778;9.166;2022-12-18T15:26:15;40.88;;;16.00;;
2912;SDS011;1466;48.778;9.166;2022-12-18T15:28:49;36.00;;;12.13;;
2912;SDS011;1466;48.778;9.166;2022-12-18T15:33:42;40.97;;;14.87;;
2912;SDS011;1466;48.778;9.166;2022-12-18T15:36:18;41.75;;;15.60;;
2912;SDS011;1466;48.778;9.166;2022-12-18T15:38:48;43.70;;;16.23;;
2912;SDS011;1466;48.778;9.166;2022-12-18T15:41:14;64.07;;;19.10;;
2912;SDS011;1466;48.778;9.166;2022-12-18T15:43:42;59.00;;;16.85;;
2912;SDS011;1466;48.778;9.166;2022-12-18T15:46:15;53.23;;;17.33;;
2912;SDS011;1466;48.778;9.166;2022-12-18T15:48:44;54.50;;;17.25;;
2912;SDS011;1466;48.778;9.166;2022-12-18T15:51:17;41.13;;;13.88;;
2912;SDS011;1466;48.778;9.166;2022-12-18T15:54:03;40.30;;;14.63;;
2912;SDS011;1466;48.778;9.166;2022-12-18T15:56:34;43.05;;;15.27;;
2912;SDS011;1466;48.778;9.166;2022-12-18T15:59:38;45.42;;;15.48;;
2912;SDS011;1466;48.778;9.166;2022-12-18T16:02:07;48.00;;;17.70;;
2912;SDS011;1466;48.778;9.166;2022-12-18T16:04:42;46.17;;;16.38;;
2912;SDS011;1466;48.778;9.166;2022-12-18T16:07:08;47.70;;;17.10;;
2912;SDS011;1466;48.778;9.166;2022-12-18T16:09:34;52.40;;;16.20;;
2912;SDS011;1466;48.778;9.166;2022-12-18T16:12:00;53.05;;;17.25;;
2912;SDS011;1466;48.778;9.166;2022-12-18T16:14:26;43.33;;;16.67;;
2912;SDS011;1466;48.778;9.166;2022-12-18T16:16:55;57.97;;;19.77;;
2912;SDS011;1466;48.778;9.166;2022-12-18T16:19:22;46.30;;;16.63;;
2912;SDS011;1466;48.778;9.166;2022-12-18T16:21:49;45.05;;;17.55;;
2912;SDS011;1466;48.778;9.166;2022-12-18T16:24:18;52.53;;;17.83;;
2912;SDS011;1466;48.778;9.166;2022-12-18T16:26:46;44.47;;;13.73;;
2912;SDS011;1466;48.778;9.166;2022-12-18T16:29:12;45.70;;;16.50;;
2912;SDS011;1466;48.778;9.166;2022-12-18T16:31:38;44.23;;;17.77;;
2912;SDS011;1466;48.778;9.166;2022-12-18T16:34:14;53.73;;;19.30;;
2912;SDS011;1466;48.778;9.166;2022-12-18T16:36:50;59.92;;;22.88;;
2912;SDS011;1466;48.778;9.166;2022-12-18T16:39:16;53.90;;;17.40;;
2912;SDS011;1466;48.778;9.166;2022-12-18T16:41:41;46.25;;;17.27;;
2912;SDS011;1466;48.778;9.166;2022-12-18T16:44:07;50.25;;;19.30;;
2912;SDS011;1466;48.778;9.166;2022-12-18T16:46:33;56.85;;;17.95;;
2912;SDS011;1466;48.778;9.166;2022-12-18T16:48:59;55.33;;;16.83;;
2912;SDS011;1466;48.778;9.166;2022-12-18T16:51:28;55.10;;;17.27;;
2912;SDS011;1466;48.778;9.166;2022-12-18T16:53:54;44.88;;;17.10;;
2912;SDS011;1466;48.778;9.166;2022-12-18T16:56:20;48.95;;;17.52;;
2912;SDS011;1466;48.778;9.166;2022-12-18T16:58:50;51.67;;;18.60;;
2912;SDS011;1466;48.778;9.166;2022-12-18T17:01:20;44.08;;;16.67;;
2912;SDS011;1466;48.778;9.166;2022-12-18T17:03:59;37.40;;;14.80;;